Weather Station Data

Station Data Captured at Five Minute Intervals Since Midnight Local Time


Date Time Temp. RH % Dew Pt. Wind Speed Wind Dir. Peak Wind Wind Chill Pressure Precip. Solar W/m2 ET
9/20/20 7:15p 66.7 41 42.2 1.0 ESE 2.0 66.7 30.377 0.00 15 0.000
9/20/20 7:10p 66.9 41 42.4 1.0 ESE 3.0 66.9 30.377 0.00 18 0.000
9/20/20 7:05p 67.1 40 42.0 1.0 ESE 3.0 67.1 30.378 0.00 19 0.000
9/20/20 7:00p 67.3 40 42.1 1.0 ESE 2.0 67.3 30.375 0.00 22 0.002
9/20/20 6:55p 67.5 40 42.3 1.0 ESE 3.0 67.5 30.375 0.00 25 0.000
9/20/20 6:50p 67.7 39 41.8 2.0 E 4.0 67.7 30.373 0.00 26 0.000
9/20/20 6:45p 67.9 39 42.0 2.0 E 3.0 67.9 30.372 0.00 28 0.000
9/20/20 6:40p 68.0 38 41.4 1.0 E 4.0 68.0 30.373 0.00 30 0.000
9/20/20 6:35p 68.2 39 42.3 2.0 ENE 4.0 68.2 30.368 0.00 32 0.000
9/20/20 6:30p 68.3 38 41.7 2.0 E 4.0 68.3 30.371 0.00 33 0.000
9/20/20 6:25p 68.4 38 41.8 2.0 E 4.0 68.4 30.368 0.00 34 0.000
9/20/20 6:20p 68.5 39 42.6 2.0 ESE 5.0 68.5 30.368 0.00 36 0.000
9/20/20 6:15p 68.7 39 42.7 2.0 E 4.0 68.7 30.369 0.00 38 0.000
9/20/20 6:10p 68.9 39 42.9 2.0 E 4.0 68.9 30.371 0.00 39 0.000
9/20/20 6:05p 69.1 38 42.4 2.0 ENE 3.0 69.1 30.372 0.00 40 0.000
9/20/20 6:00p 69.3 37 41.9 2.0 ENE 4.0 69.3 30.373 0.00 40 0.004
9/20/20 5:55p 69.5 37 42.1 2.0 ENE 3.0 69.5 30.372 0.00 42 0.000
9/20/20 5:50p 69.6 37 42.2 2.0 ENE 5.0 69.6 30.371 0.00 45 0.000
9/20/20 5:45p 69.9 36 41.7 2.0 ENE 4.0 69.9 30.371 0.00 42 0.000
9/20/20 5:40p 70.4 35 41.4 2.0 ENE 3.0 70.4 30.371 0.00 43 0.000
9/20/20 5:35p 70.8 34 41.0 2.0 ENE 4.0 70.8 30.371 0.00 44 0.000
9/20/20 5:30p 71.1 35 42.0 1.0 ENE 4.0 71.1 30.372 0.00 52 0.000
9/20/20 5:25p 71.2 34 41.4 1.0 ENE 3.0 71.2 30.373 0.00 46 0.000
9/20/20 5:20p 71.2 34 41.4 2.0 ENE 3.0 71.2 30.373 0.00 65 0.000
9/20/20 5:15p 71.3 33 40.7 2.0 ENE 4.0 71.3 30.372 0.00 89 0.000
9/20/20 5:10p 71.3 34 41.5 2.0 ENE 4.0 71.3 30.370 0.00 431 0.000
9/20/20 5:05p 71.1 33 40.5 2.0 E 5.0 71.1 30.369 0.00 446 0.000
9/20/20 5:00p 70.8 32 39.5 3.0 ESE 7.0 70.8 30.371 0.00 461 0.014
9/20/20 4:55p 70.9 32 39.6 2.0 ENE 4.0 70.9 30.371 0.00 474 0.000
9/20/20 4:50p 70.9 31 38.7 3.0 ESE 7.0 70.9 30.372 0.00 489 0.000
9/20/20 4:45p 70.9 32 39.6 2.0 ESE 4.0 70.9 30.372 0.00 504 0.000
9/20/20 4:40p 71.0 32 39.6 2.0 E 4.0 71.0 30.374 0.00 517 0.000
9/20/20 4:35p 71.2 33 40.6 3.0 E 6.0 71.2 30.373 0.00 532 0.000
9/20/20 4:30p 71.5 31 39.3 3.0 E 7.0 71.5 30.372 0.00 546 0.000
9/20/20 4:25p 71.2 33 40.6 2.0 E 4.0 71.2 30.372 0.00 558 0.000
9/20/20 4:20p 71.1 32 39.7 3.0 E 8.0 71.1 30.374 0.00 571 0.000
9/20/20 4:15p 71.5 32 40.1 3.0 E 6.0 71.5 30.377 0.00 582 0.000
9/20/20 4:10p 72.1 31 39.8 2.0 E 6.0 72.1 30.378 0.00 594 0.000
9/20/20 4:05p 72.3 32 40.8 2.0 E 7.0 72.3 30.378 0.00 603 0.000
9/20/20 4:00p 72.0 33 41.3 2.0 ENE 3.0 72.0 30.379 0.00 614 0.017
9/20/20 3:55p 71.7 33 41.0 2.0 E 5.0 71.7 30.379 0.00 624 0.000
9/20/20 3:50p 71.2 34 41.4 2.0 ENE 4.0 71.2 30.379 0.00 634 0.000
9/20/20 3:45p 71.1 34 41.3 2.0 ENE 4.0 71.1 30.381 0.00 647 0.000
9/20/20 3:40p 71.5 34 41.6 2.0 E 4.0 71.5 30.382 0.00 656 0.000
9/20/20 3:35p 71.3 34 41.5 2.0 E 5.0 71.3 30.383 0.00 662 0.000
9/20/20 3:30p 71.1 34 41.3 2.0 E 4.0 71.1 30.383 0.00 672 0.000
9/20/20 3:25p 70.8 35 41.8 2.0 ENE 6.0 70.8 30.385 0.00 681 0.000
9/20/20 3:20p 70.9 34 41.1 2.0 E 4.0 70.9 30.386 0.00 693 0.000
9/20/20 3:15p 71.1 35 42.0 2.0 ENE 10.0 71.1 30.387 0.00 701 0.000
9/20/20 3:10p 70.6 35 41.6 2.0 E 10.0 70.6 30.388 0.00 710 0.000
9/20/20 3:05p 70.0 36 41.8 2.0 E 4.0 70.0 30.392 0.00 722 0.000
9/20/20 3:00p 70.0 35 41.1 3.0 E 5.0 70.0 30.394 0.00 723 0.019
9/20/20 2:55p 70.0 35 41.1 2.0 E 6.0 70.0 30.398 0.00 728 0.000
9/20/20 2:50p 69.7 37 42.3 3.0 E 6.0 69.7 30.399 0.00 735 0.000
9/20/20 2:45p 69.7 37 42.3 2.0 E 4.0 69.7 30.397 0.00 741 0.000
9/20/20 2:40p 69.2 35 40.4 2.0 E 4.0 69.2 30.399 0.00 746 0.000
9/20/20 2:35p 69.4 37 42.0 2.0 ENE 6.0 69.4 30.404 0.00 750 0.000
9/20/20 2:30p 69.4 37 42.0 3.0 ENE 8.0 69.4 30.406 0.00 753 0.000
9/20/20 2:25p 69.6 38 42.9 3.0 E 7.0 69.6 30.407 0.00 758 0.000
9/20/20 2:20p 69.8 37 42.3 2.0 E 4.0 69.8 30.407 0.00 761 0.000
9/20/20 2:15p 70.0 36 41.8 2.0 E 4.0 70.0 30.412 0.00 765 0.000
9/20/20 2:10p 69.8 38 43.0 2.0 ENE 5.0 69.8 30.413 0.00 768 0.000
9/20/20 2:05p 69.4 37 42.0 2.0 E 6.0 69.4 30.416 0.00 771 0.000
9/20/20 2:00p 69.4 39 43.4 2.0 E 3.0 69.4 30.418 0.00 772 0.019
9/20/20 1:55p 69.3 37 41.9 2.0 E 4.0 69.3 30.419 0.00 773 0.000
9/20/20 1:50p 69.3 39 43.3 2.0 E 5.0 69.3 30.421 0.00 775 0.000
9/20/20 1:45p 68.9 39 42.9 2.0 ESE 4.0 68.9 30.421 0.00 775 0.000
9/20/20 1:40p 68.9 38 42.2 2.0 ENE 4.0 68.9 30.421 0.00 777 0.000
9/20/20 1:35p 68.6 41 43.9 2.0 ENE 5.0 68.6 30.422 0.00 776 0.000
9/20/20 1:30p 68.4 39 42.5 2.0 E 3.0 68.4 30.420 0.00 777 0.000
9/20/20 1:25p 68.3 40 43.0 3.0 E 8.0 68.3 30.420 0.00 780 0.000
9/20/20 1:20p 68.2 43 44.8 2.0 ENE 4.0 68.2 30.423 0.00 780 0.000
9/20/20 1:15p 67.7 43 44.4 2.0 E 5.0 67.7 30.424 0.00 772 0.000
9/20/20 1:10p 67.4 42 43.5 1.0 E 3.0 67.4 30.427 0.00 770 0.000
9/20/20 1:05p 67.2 42 43.3 3.0 E 5.0 67.2 30.429 0.00 771 0.000
9/20/20 1:00p 67.4 41 42.9 2.0 E 5.0 67.4 30.430 0.00 771 0.017
9/20/20 12:55p 67.5 43 44.2 2.0 ENE 5.0 67.5 30.430 0.00 766 0.000
9/20/20 12:50p 67.2 44 44.5 2.0 E 4.0 67.2 30.432 0.00 757 0.000
9/20/20 12:45p 66.7 45 44.7 1.0 ENE 4.0 66.7 30.432 0.00 752 0.000
9/20/20 12:40p 66.1 47 45.3 2.0 E 4.0 66.1 30.431 0.00 745 0.000
9/20/20 12:35p 65.6 46 44.3 2.0 E 6.0 65.6 30.432 0.00 739 0.000
9/20/20 12:30p 65.3 46 44.0 3.0 E 6.0 65.3 30.435 0.00 735 0.000
9/20/20 12:25p 65.5 45 43.6 3.0 E 6.0 65.5 30.437 0.00 727 0.000
9/20/20 12:20p 65.3 46 44.0 2.0 E 4.0 65.3 30.440 0.00 720 0.000
9/20/20 12:15p 64.9 46 43.6 2.0 ENE 5.0 64.9 30.439 0.00 715 0.000
9/20/20 12:10p 64.3 48 44.2 2.0 ENE 5.0 64.3 30.438 0.00 705 0.000
9/20/20 12:05p 63.6 49 44.1 1.0 ENE 4.0 63.6 30.439 0.00 696 0.000
9/20/20 12:00p 63.0 49 43.5 1.0 ENE 5.0 63.0 30.439 0.00 688 0.004
9/20/20 11:55a 62.6 49 43.2 1.0 E 4.0 62.6 30.438 0.00 104 0.000
9/20/20 11:50a 62.2 50 43.3 1.0 E 3.0 62.2 30.439 0.00 84 0.000
9/20/20 11:45a 61.8 50 43.0 3.0 ENE 5.0 61.8 30.440 0.00 118 0.000
9/20/20 11:40a 61.6 49 42.2 2.0 E 5.0 61.6 30.440 0.00 189 0.000
9/20/20 11:35a 61.1 53 43.8 1.0 E 3.0 61.1 30.440 0.00 89 0.000
9/20/20 11:30a 60.6 52 42.9 2.0 E 4.0 60.6 30.439 0.00 69 0.000
9/20/20 11:25a 60.2 53 43.0 2.0 ENE 4.0 60.2 30.438 0.00 84 0.000
9/20/20 11:20a 59.9 53 42.7 2.0 ENE 5.0 59.9 30.439 0.00 56 0.000
9/20/20 11:15a 59.6 53 42.4 2.0 E 4.0 59.6 30.438 0.00 39 0.000
9/20/20 11:10a 59.3 54 42.6 2.0 E 4.0 59.3 30.437 0.00 38 0.000
9/20/20 11:05a 58.9 54 42.3 2.0 ENE 4.0 58.9 30.435 0.00 38 0.000
9/20/20 11:00a 58.7 54 42.1 2.0 E 4.0 58.7 30.432 0.00 37 0.002
9/20/20 10:55a 58.2 55 42.1 2.0 E 6.0 58.2 30.430 0.00 40 0.000
9/20/20 10:50a 57.9 56 42.3 2.0 E 4.0 57.9 30.429 0.00 35 0.000
9/20/20 10:45a 57.5 57 42.4 2.0 ENE 5.0 57.5 30.428 0.00 38 0.000
9/20/20 10:40a 57.1 58 42.5 2.0 ENE 4.0 57.1 30.429 0.00 79 0.000
9/20/20 10:35a 56.8 58 42.2 2.0 ENE 3.0 56.8 30.429 0.00 80 0.000
9/20/20 10:30a 56.6 59 42.4 2.0 E 4.0 56.6 30.429 0.00 38 0.000
9/20/20 10:25a 56.4 60 42.7 1.0 E 2.0 56.4 30.427 0.00 33 0.000
9/20/20 10:20a 55.9 61 42.6 1.0 E 3.0 55.9 30.426 0.00 33 0.000
9/20/20 10:15a 55.5 62 42.7 1.0 E 3.0 55.5 30.424 0.00 32 0.000
9/20/20 10:10a 55.2 62 42.4 1.0 E 4.0 55.2 30.419 0.00 33 0.000
9/20/20 10:05a 54.9 65 43.4 1.0 E 3.0 54.9 30.419 0.00 34 0.000
9/20/20 10:00a 54.4 65 42.9 1.0 E 3.0 54.4 30.416 0.00 30 0.001
9/20/20 9:55a 53.7 67 43.0 1.0 E 4.0 53.7 30.416 0.00 30 0.000
9/20/20 9:50a 53.1 67 42.4 1.0 E 4.0 53.1 30.415 0.00 30 0.000
9/20/20 9:45a 52.7 68 42.4 1.0 E 2.0 52.7 30.413 0.00 52 0.000
9/20/20 9:40a 52.2 68 42.0 1.0 E 3.0 52.2 30.414 0.00 41 0.000
9/20/20 9:35a 51.9 69 42.0 1.0 E 2.0 51.9 30.409 0.00 28 0.000
9/20/20 9:30a 51.6 70 42.1 1.0 E 2.0 51.6 30.409 0.00 28 0.000
9/20/20 9:25a 51.2 71 42.1 1.0 E 2.0 51.2 30.410 0.00 26 0.000
9/20/20 9:20a 50.8 71 41.7 1.0 E 3.0 50.8 30.410 0.00 26 0.000
9/20/20 9:15a 50.5 71 41.4 1.0 E 3.0 50.5 30.408 0.00 28 0.000
9/20/20 9:10a 50.2 72 41.5 1.0 E 3.0 50.2 30.409 0.00 34 0.000
9/20/20 9:05a 49.9 72 41.2 1.0 E 2.0 49.9 30.408 0.00 27 0.000
9/20/20 9:00a 49.6 73 41.3 1.0 E 3.0 49.6 30.408 0.00 25 0.001
9/20/20 8:55a 49.2 74 41.3 1.0 E 3.0 49.2 30.406 0.00 25 0.000
9/20/20 8:50a 48.8 75 41.2 0.0 E 1.0 48.8 30.404 0.00 25 0.000
9/20/20 8:45a 48.4 76 41.2 0.0 E 2.0 48.4 30.405 0.00 24 0.000
9/20/20 8:40a 48.1 76 40.9 0.0 E 2.0 48.1 30.403 0.00 23 0.000
9/20/20 8:35a 47.8 76 40.6 0.0 E 2.0 47.8 30.406 0.00 21 0.000
9/20/20 8:30a 47.5 77 40.6 0.0 E 2.0 47.5 30.407 0.00 21 0.000
9/20/20 8:25a 47.2 77 40.4 0.0 E 2.0 47.2 30.407 0.00 21 0.000
9/20/20 8:20a 46.9 78 40.4 0.0 E 1.0 46.9 30.408 0.00 28 0.000
9/20/20 8:15a 46.6 78 40.1 0.0 E 1.0 46.6 30.405 0.00 19 0.000
9/20/20 8:10a 46.4 79 40.2 0.0 E 1.0 46.4 30.403 0.00 18 0.000
9/20/20 8:05a 46.1 79 39.9 0.0 --- 0.0 46.1 30.399 0.00 16 0.000
9/20/20 8:00a 46.0 79 39.9 0.0 --- 0.0 46.0 30.396 0.00 14 0.000
9/20/20 7:55a 45.9 78 39.4 0.0 --- 0.0 45.9 30.393 0.00 12 0.000
9/20/20 7:50a 45.8 78 39.3 0.0 --- 0.0 45.8 30.390 0.00 12 0.000
9/20/20 7:45a 45.8 78 39.3 0.0 --- 0.0 45.8 30.388 0.00 10 0.000
9/20/20 7:40a 45.8 78 39.3 0.0 --- 0.0 45.8 30.386 0.00 8 0.000
9/20/20 7:35a 45.8 78 39.3 0.0 --- 0.0 45.8 30.387 0.00 4 0.000
9/20/20 7:30a 45.8 78 39.3 0.0 E 1.0 45.8 30.386 0.00 0 0.000
9/20/20 7:25a 45.9 78 39.4 0.0 --- 0.0 45.9 30.381 0.00 0 0.000
9/20/20 7:20a 45.9 78 39.4 0.0 --- 0.0 45.9 30.378 0.00 0 0.000
9/20/20 7:15a 45.9 78 39.4 0.0 --- 0.0 45.9 30.376 0.00 0 0.000
9/20/20 7:10a 45.9 78 39.4 0.0 --- 0.0 45.9 30.374 0.00 0 0.000
9/20/20 7:05a 46.0 78 39.5 0.0 --- 0.0 46.0 30.375 0.00 0 0.000
9/20/20 7:00a 46.0 78 39.5 0.0 --- 0.0 46.0 30.373 0.00 0 0.001
9/20/20 6:55a 46.0 78 39.5 0.0 --- 0.0 46.0 30.372 0.00 0 0.000
9/20/20 6:50a 46.1 78 39.6 0.0 --- 0.0 46.1 30.370 0.00 0 0.000
9/20/20 6:45a 46.2 78 39.7 0.0 --- 0.0 46.2 30.369 0.00 0 0.000
9/20/20 6:40a 46.2 78 39.7 0.0 E 1.0 46.2 30.368 0.00 0 0.000
9/20/20 6:35a 46.3 78 39.8 0.0 --- 0.0 46.3 30.366 0.00 0 0.000
9/20/20 6:30a 46.3 77 39.5 0.0 --- 0.0 46.3 30.365 0.00 0 0.000
9/20/20 6:25a 46.4 77 39.6 0.0 --- 0.0 46.4 30.365 0.00 0 0.000
9/20/20 6:20a 46.5 77 39.7 0.0 --- 0.0 46.5 30.364 0.00 0 0.000
9/20/20 6:15a 46.5 77 39.7 0.0 --- 0.0 46.5 30.363 0.00 0 0.000
9/20/20 6:10a 46.5 77 39.7 0.0 --- 0.0 46.5 30.365 0.00 0 0.000
9/20/20 6:05a 46.6 77 39.8 0.0 --- 0.0 46.6 30.363 0.00 0 0.000
9/20/20 6:00a 46.6 77 39.8 0.0 --- 0.0 46.6 30.364 0.00 0 0.001
9/20/20 5:55a 46.6 77 39.8 0.0 --- 0.0 46.6 30.364 0.00 0 0.000
9/20/20 5:50a 46.5 78 40.0 0.0 --- 0.0 46.5 30.363 0.00 0 0.000
9/20/20 5:45a 46.5 78 40.0 0.0 --- 0.0 46.5 30.361 0.00 0 0.000
9/20/20 5:40a 46.4 78 39.9 0.0 --- 0.0 46.4 30.361 0.00 0 0.000
9/20/20 5:35a 46.4 78 39.9 0.0 --- 0.0 46.4 30.359 0.00 0 0.000
9/20/20 5:30a 46.4 78 39.9 0.0 --- 0.0 46.4 30.359 0.00 0 0.000
9/20/20 5:25a 46.5 78 40.0 0.0 --- 0.0 46.5 30.357 0.00 0 0.000
9/20/20 5:20a 46.7 78 40.2 0.0 --- 0.0 46.7 30.355 0.00 0 0.000
9/20/20 5:15a 46.8 78 40.3 0.0 --- 0.0 46.8 30.356 0.00 0 0.000
9/20/20 5:10a 46.9 78 40.4 0.0 --- 0.0 46.9 30.355 0.00 0 0.000
9/20/20 5:05a 46.9 78 40.4 0.0 --- 0.0 46.9 30.355 0.00 0 0.000
9/20/20 5:00a 46.9 78 40.4 0.0 --- 0.0 46.9 30.354 0.00 0 0.001
9/20/20 4:55a 46.8 78 40.3 0.0 --- 0.0 46.8 30.354 0.00 0 0.000
9/20/20 4:50a 46.9 78 40.4 0.0 --- 0.0 46.9 30.353 0.00 0 0.000
9/20/20 4:45a 46.8 78 40.3 0.0 --- 0.0 46.8 30.353 0.00 0 0.000
9/20/20 4:40a 47.0 78 40.5 0.0 --- 0.0 47.0 30.350 0.00 0 0.000
9/20/20 4:35a 47.2 77 40.4 0.0 --- 0.0 47.2 30.350 0.00 0 0.000
9/20/20 4:30a 47.5 77 40.6 0.0 --- 0.0 47.5 30.349 0.00 0 0.000
9/20/20 4:25a 47.6 77 40.7 0.0 --- 0.0 47.6 30.348 0.00 0 0.000
9/20/20 4:20a 47.7 77 40.8 0.0 --- 0.0 47.7 30.349 0.00 0 0.000
9/20/20 4:15a 47.8 76 40.6 0.0 --- 0.0 47.8 30.349 0.00 0 0.000
9/20/20 4:10a 47.8 77 40.9 0.0 --- 0.0 47.8 30.349 0.00 0 0.000
9/20/20 4:05a 47.7 77 40.8 0.0 --- 0.0 47.7 30.347 0.00 0 0.000
9/20/20 4:00a 47.6 78 41.1 0.0 --- 0.0 47.6 30.346 0.00 0 0.001
9/20/20 3:55a 47.5 78 41.0 0.0 --- 0.0 47.5 30.346 0.00 0 0.000
9/20/20 3:50a 47.6 78 41.1 0.0 --- 0.0 47.6 30.346 0.00 0 0.000
9/20/20 3:45a 47.9 78 41.4 0.0 --- 0.0 47.9 30.348 0.00 0 0.000
9/20/20 3:40a 48.1 77 41.2 0.0 --- 0.0 48.1 30.348 0.00 0 0.000
9/20/20 3:35a 48.2 77 41.3 0.0 --- 0.0 48.2 30.350 0.00 0 0.000
9/20/20 3:30a 48.1 78 41.6 0.0 --- 0.0 48.1 30.352 0.00 0 0.000
9/20/20 3:25a 48.1 78 41.6 0.0 --- 0.0 48.1 30.349 0.00 0 0.000
9/20/20 3:20a 48.5 78 42.0 0.0 --- 0.0 48.5 30.349 0.00 0 0.000
9/20/20 3:15a 48.9 77 42.0 0.0 --- 0.0 48.9 30.352 0.00 0 0.000
9/20/20 3:10a 49.1 75 41.5 0.0 --- 0.0 49.1 30.352 0.00 0 0.000
9/20/20 3:05a 49.2 75 41.6 0.0 --- 0.0 49.2 30.352 0.00 0 0.000
9/20/20 3:00a 49.3 75 41.7 0.0 --- 0.0 49.3 30.354 0.00 0 0.001
9/20/20 2:55a 49.3 75 41.7 0.0 --- 0.0 49.3 30.356 0.00 0 0.000
9/20/20 2:50a 49.3 75 41.7 0.0 --- 0.0 49.3 30.355 0.00 0 0.000
9/20/20 2:45a 49.3 76 42.1 0.0 E 1.0 49.3 30.354 0.00 0 0.000
9/20/20 2:40a 49.2 76 42.0 0.0 E 1.0 49.2 30.352 0.00 0 0.000
9/20/20 2:35a 49.0 77 42.1 0.0 --- 0.0 49.0 30.352 0.00 0 0.000
9/20/20 2:30a 48.6 78 42.0 0.0 E 1.0 48.6 30.353 0.00 0 0.000
9/20/20 2:25a 48.2 78 41.7 0.0 --- 0.0 48.2 30.352 0.00 0 0.000
9/20/20 2:20a 48.0 78 41.5 0.0 --- 0.0 48.0 30.351 0.00 0 0.000
9/20/20 2:15a 48.1 77 41.2 0.0 --- 0.0 48.1 30.350 0.00 0 0.000
9/20/20 2:10a 48.4 77 41.5 0.0 --- 0.0 48.4 30.349 0.00 0 0.000
9/20/20 2:05a 48.6 77 41.7 0.0 --- 0.0 48.6 30.349 0.00 0 0.000
9/20/20 2:00a 48.7 77 41.8 0.0 --- 0.0 48.7 30.349 0.00 0 0.001
9/20/20 1:55a 48.8 77 41.9 0.0 --- 0.0 48.8 30.349 0.00 0 0.000
9/20/20 1:50a 48.7 77 41.8 0.0 --- 0.0 48.7 30.345 0.00 0 0.000
9/20/20 1:45a 48.7 77 41.8 0.0 --- 0.0 48.7 30.345 0.00 0 0.000
9/20/20 1:40a 48.6 78 42.0 0.0 --- 0.0 48.6 30.344 0.00 0 0.000
9/20/20 1:35a 48.4 78 41.9 0.0 --- 0.0 48.4 30.342 0.00 0 0.000
9/20/20 1:30a 48.3 78 41.8 0.0 --- 0.0 48.3 30.344 0.00 0 0.000
9/20/20 1:25a 48.1 79 41.9 0.0 --- 0.0 48.1 30.344 0.00 0 0.000
9/20/20 1:20a 48.0 79 41.8 0.0 --- 0.0 48.0 30.341 0.00 0 0.000
9/20/20 1:15a 48.0 79 41.8 0.0 --- 0.0 48.0 30.342 0.00 0 0.000
9/20/20 1:10a 48.0 79 41.8 0.0 --- 0.0 48.0 30.341 0.00 0 0.000
9/20/20 1:05a 47.8 80 41.9 0.0 --- 0.0 47.8 30.342 0.00 0 0.000
9/20/20 1:00a 47.7 80 41.8 0.0 --- 0.0 47.7 30.340 0.00 0 0.001
9/20/20 12:55a 47.9 79 41.7 0.0 --- 0.0 47.9 30.340 0.00 0 0.000
9/20/20 12:50a 48.1 79 41.9 0.0 --- 0.0 48.1 30.340 0.00 0 0.000
9/20/20 12:45a 48.3 77 41.4 0.0 --- 0.0 48.3 30.343 0.00 0 0.000
9/20/20 12:40a 48.5 77 41.6 0.0 --- 0.0 48.5 30.344 0.00 0 0.000
9/20/20 12:35a 48.6 78 42.0 0.0 --- 0.0 48.6 30.344 0.00 0 0.000
9/20/20 12:30a 48.6 78 42.0 0.0 --- 0.0 48.6 30.344 0.00 0 0.000
9/20/20 12:25a 48.7 78 42.1 0.0 --- 0.0 48.7 30.344 0.00 0 0.000
9/20/20 12:20a 48.9 77 42.0 0.0 --- 0.0 48.9 30.342 0.00 0 0.000
9/20/20 12:15a 49.0 76 41.8 0.0 --- 0.0 49.0 30.341 0.00 0 0.000
9/20/20 12:10a 49.1 76 41.9 0.0 --- 0.0 49.1 30.342 0.00 0 0.000
9/20/20 12:05a 49.1 77 42.2 0.0 --- 0.0 49.1 30.340 0.00 0 0.000
9/20/20 12:00a 49.0 77 42.1 0.0 --- 0.0 49.0 30.337 0.00 0 0.001

13,719 Page Views